createdAt,value
2023-03-24T00:00:58.169Z,0.00
2023-03-24T00:01:58.094Z,0.00
2023-03-24T00:02:58.087Z,0.00
2023-03-24T00:03:57.961Z,0.00
2023-03-24T00:04:57.855Z,0.00
2023-03-24T00:05:57.772Z,0.00
2023-03-24T00:06:57.698Z,0.00
2023-03-24T00:08:01.728Z,0.00
2023-03-24T00:08:57.540Z,0.00
2023-03-24T00:09:57.470Z,0.00
2023-03-24T00:10:57.415Z,0.00
2023-03-24T00:11:57.311Z,0.00
2023-03-24T00:12:57.225Z,0.00
2023-03-24T00:13:57.151Z,0.00
2023-03-24T00:14:57.071Z,0.00
2023-03-24T00:15:57.019Z,0.00
2023-03-24T00:16:56.912Z,0.00
2023-03-24T00:17:56.849Z,0.00
2023-03-24T00:18:56.758Z,0.00
2023-03-24T00:19:56.680Z,0.00
2023-03-24T00:20:56.598Z,0.00
2023-03-24T00:21:56.522Z,0.00
2023-03-24T00:22:56.446Z,0.00
2023-03-24T00:23:56.374Z,0.00
2023-03-24T00:24:56.284Z,0.00
2023-03-24T00:25:56.478Z,0.00
2023-03-24T00:26:56.245Z,0.00
2023-03-24T00:27:56.050Z,0.00
2023-03-24T00:28:56.271Z,0.00
2023-03-24T00:29:56.045Z,0.00
2023-03-24T00:30:55.837Z,0.00
2023-03-24T00:31:55.738Z,0.00
2023-03-24T00:32:55.737Z,0.00
2023-03-24T00:33:55.621Z,0.00
2023-03-24T00:34:55.512Z,0.00
2023-03-24T00:35:55.445Z,0.00
2023-03-24T00:36:55.598Z,0.00
2023-03-24T00:37:55.286Z,0.00
2023-03-24T00:38:55.190Z,0.00
2023-03-24T00:39:55.134Z,0.00
2023-03-24T00:40:55.033Z,0.00
2023-03-24T00:41:54.957Z,0.00
2023-03-24T00:42:54.894Z,0.00
2023-03-24T00:43:54.800Z,0.00
2023-03-24T00:44:54.720Z,0.00
2023-03-24T00:45:54.641Z,0.00
2023-03-24T00:47:54.968Z,0.00
2023-03-24T00:48:54.405Z,0.00
2023-03-24T00:49:54.357Z,0.00
2023-03-24T00:50:54.248Z,0.00
2023-03-24T00:51:54.172Z,0.00
2023-03-24T01:54:36.993Z,0.00
2023-03-24T01:55:36.874Z,0.00
2023-03-24T01:56:36.823Z,0.00
2023-03-24T01:57:36.716Z,0.00
2023-03-24T01:58:36.636Z,0.00
2023-03-24T01:59:36.606Z,0.00
2023-03-24T02:00:36.479Z,0.00
2023-03-24T02:01:36.459Z,0.00
2023-03-24T02:02:36.341Z,0.00
2023-03-24T02:03:36.252Z,0.00
2023-03-24T02:04:36.160Z,0.00
2023-03-24T02:05:36.083Z,0.00
2023-03-24T02:06:36.006Z,0.00
2023-03-24T02:07:35.934Z,0.00
2023-03-24T02:08:35.846Z,0.00
2023-03-24T02:09:36.015Z,0.00
2023-03-24T02:10:35.710Z,0.00
2023-03-24T02:11:35.612Z,0.00
2023-03-24T02:12:35.533Z,0.00
2023-03-24T02:13:35.448Z,0.00
2023-03-24T02:14:35.374Z,0.00
2023-03-24T02:15:35.292Z,0.00
2023-03-24T02:16:35.232Z,0.00
2023-03-24T02:17:35.169Z,0.00
2023-03-24T02:18:35.056Z,0.00
2023-03-24T02:19:34.977Z,0.00
2023-03-24T02:20:34.898Z,0.00
2023-03-24T02:21:34.869Z,0.00
2023-03-24T02:22:34.741Z,0.00
2023-03-24T02:23:34.763Z,0.00
2023-03-24T02:24:34.585Z,0.00
2023-03-24T02:25:34.861Z,0.00
2023-03-24T02:26:34.487Z,0.00
2023-03-24T02:27:34.346Z,0.00
2023-03-24T02:28:34.280Z,0.00
2023-03-24T02:29:34.187Z,0.00
2023-03-24T02:30:34.117Z,0.00
2023-03-24T02:31:34.043Z,0.00
2023-03-24T02:32:34.011Z,0.00
2023-03-24T02:33:34.275Z,0.00
2023-03-24T02:34:33.805Z,0.00
2023-03-24T02:35:33.719Z,0.00
2023-03-24T02:36:33.638Z,0.00
2023-03-24T02:37:33.554Z,0.00
2023-03-24T02:38:33.479Z,0.00
2023-03-24T02:39:33.410Z,0.00
2023-03-24T02:40:33.322Z,0.00
2023-03-24T02:41:33.242Z,0.00
2023-03-24T02:42:33.195Z,0.00
2023-03-24T02:43:33.089Z,0.00
2023-03-24T02:44:33.009Z,0.00
2023-03-24T02:45:32.981Z,0.00
2023-03-24T02:46:32.847Z,0.00
2023-03-24T02:47:32.786Z,0.00
2023-03-24T02:48:32.730Z,0.00
2023-03-24T02:49:32.607Z,0.00
2023-03-24T02:50:32.544Z,0.00
2023-03-24T02:51:32.861Z,0.00
2023-03-24T02:52:32.374Z,0.00
2023-03-24T02:53:32.357Z,0.00
2023-03-24T02:54:32.216Z,0.00
2023-03-24T02:55:32.159Z,0.00
2023-03-24T02:56:32.089Z,0.00
2023-03-24T02:57:31.983Z,0.00
2023-03-24T02:58:31.921Z,0.00
2023-03-24T02:59:31.821Z,0.00
2023-03-24T03:00:31.842Z,0.00
2023-03-24T03:01:32.092Z,0.00
2023-03-24T03:02:31.627Z,0.00
2023-03-24T03:03:31.510Z,0.00
2023-03-24T03:04:31.461Z,0.00
2023-03-24T03:05:31.347Z,0.00
2023-03-24T03:06:31.297Z,0.00
2023-03-24T03:07:31.189Z,0.00
2023-03-24T03:08:31.117Z,0.00
2023-03-24T03:09:31.033Z,0.00
2023-03-24T03:10:31.219Z,0.00
2023-03-24T03:11:30.874Z,0.00
2023-03-24T03:12:30.798Z,0.00
2023-03-24T03:13:30.723Z,0.00
2023-03-24T03:14:30.669Z,0.00
2023-03-24T03:15:30.577Z,0.00
2023-03-24T03:16:30.486Z,0.00
2023-03-24T03:17:30.428Z,0.00
2023-03-24T03:18:30.361Z,0.00
2023-03-24T03:19:30.249Z,0.00
2023-03-24T03:20:30.172Z,0.00
2023-03-24T03:21:30.089Z,0.00
2023-03-24T03:22:30.028Z,0.00
2023-03-24T03:23:29.937Z,0.00
2023-03-24T03:24:29.863Z,0.00
2023-03-24T03:25:29.781Z,0.00
2023-03-24T03:26:29.701Z,0.00
2023-03-24T03:27:29.619Z,0.00
2023-03-24T03:28:29.561Z,0.00
2023-03-24T03:29:29.468Z,0.00
2023-03-24T03:30:29.402Z,0.00
2023-03-24T03:31:29.334Z,0.00
2023-03-24T03:32:29.256Z,0.00
2023-03-24T04:02:19.832Z,0.00
2023-03-24T04:03:17.130Z,0.00
2023-03-24T04:04:16.973Z,0.00
2023-03-24T04:05:17.198Z,0.00
2023-03-24T04:06:16.817Z,0.00
2023-03-24T04:07:16.734Z,0.00
2023-03-24T04:08:16.658Z,0.00
2023-03-24T04:09:16.578Z,0.00
2023-03-24T04:10:16.502Z,0.00
2023-03-24T04:11:16.432Z,0.00
2023-03-24T04:12:16.383Z,0.00
2023-03-24T04:13:16.262Z,0.00
2023-03-24T04:14:16.191Z,0.00
2023-03-24T04:15:16.116Z,0.00
2023-03-24T04:16:16.042Z,0.00
2023-03-24T04:17:15.949Z,0.00
2023-03-24T04:18:15.894Z,0.00
2023-03-24T04:19:15.798Z,0.00
2023-03-24T04:20:15.713Z,0.00
2023-03-24T04:21:15.640Z,0.00
2023-03-24T04:22:15.558Z,0.00
2023-03-24T04:23:15.478Z,0.00
2023-03-24T04:24:15.403Z,0.00
2023-03-24T04:25:15.323Z,0.00
2023-03-24T04:26:15.255Z,0.00
2023-03-24T04:27:15.169Z,0.00
2023-03-24T04:28:15.088Z,0.00
2023-03-24T04:29:15.011Z,0.00
2023-03-24T04:30:16.709Z,0.00
2023-03-24T04:31:14.889Z,0.00
2023-03-24T04:32:14.782Z,0.00
2023-03-24T04:33:14.698Z,0.00
2023-03-24T04:34:14.640Z,0.00
2023-03-24T04:35:14.542Z,0.00
2023-03-24T04:36:14.686Z,0.00
2023-03-24T04:37:14.386Z,0.00
2023-03-24T04:38:14.306Z,0.00
2023-03-24T04:39:14.225Z,0.00
2023-03-24T04:40:14.151Z,0.00
2023-03-24T04:41:14.721Z,0.00
2023-03-24T04:42:13.996Z,0.00
2023-03-24T04:43:13.919Z,0.00
2023-03-24T04:44:13.835Z,0.00
2023-03-24T04:46:13.919Z,0.00
2023-03-24T04:47:13.599Z,0.00
2023-03-24T04:49:13.445Z,0.00
2023-03-24T04:56:12.914Z,0.00
2023-03-24T04:57:12.844Z,0.00
2023-03-24T04:58:12.742Z,0.00
2023-03-24T04:59:12.663Z,0.00
2023-03-24T05:00:12.586Z,0.00
2023-03-24T05:01:12.543Z,0.00
2023-03-24T05:02:12.437Z,0.00
2023-03-24T05:03:12.345Z,0.00
2023-03-24T05:04:12.315Z,4.00
2023-03-24T05:05:12.237Z,4.00
2023-03-24T05:06:12.107Z,4.00
2023-03-24T05:07:12.030Z,4.00
2023-03-24T05:08:11.953Z,0.00
2023-03-24T05:09:11.872Z,4.00
2023-03-24T05:10:11.796Z,4.00
2023-03-24T05:11:11.863Z,4.00
2023-03-24T05:12:11.661Z,4.00
2023-03-24T05:13:11.561Z,4.00
2023-03-24T05:14:11.474Z,4.00
2023-03-24T05:15:11.395Z,4.00
2023-03-24T05:16:11.351Z,8.00
2023-03-24T05:17:11.239Z,8.00
2023-03-24T05:18:11.225Z,8.00
2023-03-24T05:19:11.084Z,12.00
2023-03-24T05:20:11.327Z,12.00
2023-03-24T05:21:10.924Z,12.00
2023-03-24T05:22:10.843Z,12.00
2023-03-24T05:23:10.771Z,12.00
2023-03-24T05:24:10.686Z,12.00
2023-03-24T05:25:10.607Z,12.00
2023-03-24T05:26:10.531Z,12.00
2023-03-24T05:27:10.496Z,16.00
2023-03-24T05:28:10.388Z,20.00
2023-03-24T05:29:10.306Z,24.00
2023-03-24T05:30:10.216Z,28.00
2023-03-24T05:31:10.186Z,36.00
2023-03-24T05:32:10.202Z,40.00
2023-03-24T05:33:09.994Z,48.00
2023-03-24T05:34:09.898Z,60.00
2023-03-24T05:35:09.814Z,88.00
2023-03-24T05:36:09.839Z,120.00
2023-03-24T05:37:09.655Z,144.00
2023-03-24T05:38:09.581Z,164.00
2023-03-24T05:39:09.496Z,168.00
2023-03-24T05:40:09.426Z,180.00
2023-03-24T05:41:09.339Z,204.00
2023-03-24T05:42:09.256Z,236.00
2023-03-24T05:43:09.278Z,256.00
2023-03-24T05:44:09.131Z,264.00
2023-03-24T05:45:09.017Z,300.00
2023-03-24T05:46:08.949Z,376.00
2023-03-24T05:47:08.865Z,436.00
2023-03-24T05:48:08.810Z,452.00
2023-03-24T05:49:08.699Z,496.00
2023-03-24T05:50:08.621Z,580.00
2023-03-24T05:51:09.153Z,636.00
2023-03-24T05:52:08.461Z,628.00
2023-03-24T05:53:08.381Z,616.00
2023-03-24T05:54:08.303Z,560.00
2023-03-24T05:55:08.220Z,524.00
2023-03-24T05:56:08.145Z,496.00
2023-03-24T05:57:08.101Z,488.00
2023-03-24T05:58:07.983Z,512.00
2023-03-24T05:59:07.903Z,532.00
2023-03-24T06:00:07.844Z,560.00
2023-03-24T06:01:08.094Z,584.00
2023-03-24T06:02:07.765Z,560.00
2023-03-24T06:03:07.681Z,540.00
2023-03-24T06:04:07.603Z,568.00
2023-03-24T06:05:07.466Z,652.00
2023-03-24T06:06:07.457Z,728.00
2023-03-24T06:07:07.267Z,836.00
2023-03-24T06:08:07.196Z,976.00
2023-03-24T06:09:07.124Z,1120.00
2023-03-24T06:10:07.032Z,1236.00
2023-03-24T06:11:06.948Z,1348.00
2023-03-24T06:12:06.884Z,1432.00
2023-03-24T06:13:06.794Z,1476.00
2023-03-24T06:14:06.714Z,1496.00
2023-03-24T06:15:06.637Z,1464.00
2023-03-24T06:16:06.629Z,1476.00
2023-03-24T06:17:06.476Z,1568.00
2023-03-24T06:18:06.565Z,1648.00
2023-03-24T06:19:06.367Z,1660.00
2023-03-24T06:20:06.235Z,1744.00
2023-03-24T06:21:06.156Z,1716.00
2023-03-24T06:22:06.078Z,1756.00
2023-03-24T06:23:06.000Z,1840.00
2023-03-24T06:24:05.921Z,1908.00
2023-03-24T06:25:05.842Z,2016.00
2023-03-24T06:26:05.760Z,2156.00
2023-03-24T06:27:05.682Z,2220.00
2023-03-24T06:28:05.600Z,2488.00
2023-03-24T06:29:05.522Z,2580.00
2023-03-24T06:30:08.067Z,2516.00
2023-03-24T10:39:26.278Z,4272.00
2023-03-24T10:40:21.976Z,2988.00
2023-03-24T10:41:21.907Z,2860.00
2023-03-24T10:42:21.945Z,2652.00
2023-03-24T10:43:22.351Z,2276.00
2023-03-24T10:44:21.664Z,2492.00
2023-03-24T10:45:21.589Z,2224.00
2023-03-24T10:46:21.542Z,2052.00
2023-03-24T10:47:21.441Z,1956.00
2023-03-24T10:48:21.393Z,1312.00
2023-03-24T10:49:21.273Z,1632.00
2023-03-24T10:50:21.536Z,2036.00
2023-03-24T10:51:21.118Z,1244.00
2023-03-24T10:52:21.035Z,1652.00
2023-03-24T10:53:20.958Z,1656.00
2023-03-24T10:54:21.228Z,1800.00
2023-03-24T10:55:20.819Z,1084.00
2023-03-24T10:56:21.021Z,560.00
2023-03-24T10:57:20.644Z,488.00
2023-03-24T10:58:20.572Z,588.00
2023-03-24T10:59:20.487Z,500.00
2023-03-24T11:00:20.405Z,840.00
2023-03-24T11:01:20.358Z,944.00
2023-03-24T11:02:20.360Z,1084.00
2023-03-24T11:03:20.374Z,960.00
2023-03-24T11:04:20.302Z,1052.00
2023-03-24T11:05:20.020Z,944.00
2023-03-24T11:06:19.926Z,1096.00
2023-03-24T11:07:19.861Z,1120.00
2023-03-24T11:08:19.769Z,1176.00
2023-03-24T11:09:19.690Z,1268.00
2023-03-24T11:10:19.611Z,1436.00
2023-03-24T11:11:19.554Z,1640.00
2023-03-24T11:12:19.448Z,2176.00
2023-03-24T11:13:19.371Z,2652.00
2023-03-24T11:14:19.288Z,3240.00
2023-03-24T11:15:22.097Z,3568.00
2023-03-24T11:16:19.207Z,4168.00
2023-03-24T11:17:19.047Z,5076.00
2023-03-24T11:18:18.968Z,5036.00
2023-03-24T11:19:20.325Z,4924.00
2023-03-24T11:22:18.679Z,3456.00
2023-03-24T11:23:18.601Z,2608.00
2023-03-24T11:24:18.523Z,2444.00
2023-03-24T11:28:18.203Z,2544.00
2023-03-24T11:29:18.089Z,4468.00
2023-03-24T11:30:18.104Z,5892.00
2023-03-24T11:31:18.005Z,6728.00
2023-03-24T11:32:17.844Z,7524.00
2023-03-24T11:33:17.763Z,5920.00
2023-03-24T11:34:17.739Z,4664.00
2023-03-24T11:35:17.784Z,4016.00
2023-03-24T11:36:17.563Z,4044.00
2023-03-24T11:37:17.443Z,4152.00
2023-03-24T11:38:17.365Z,4120.00
2023-03-24T11:39:17.286Z,3956.00
2023-03-24T11:40:17.367Z,4508.00
2023-03-24T11:41:17.122Z,5364.00
2023-03-24T11:42:17.069Z,6208.00
2023-03-24T11:43:16.963Z,7396.00
2023-03-24T11:44:16.920Z,7988.00
2023-03-24T11:45:16.808Z,8460.00
2023-03-24T11:46:16.775Z,8464.00
2023-03-24T11:47:16.646Z,7412.00
2023-03-24T11:48:16.577Z,6048.00
2023-03-24T11:49:16.488Z,5700.00
2023-03-24T11:50:16.471Z,5700.00
2023-03-24T11:51:16.326Z,6028.00
2023-03-24T11:52:16.248Z,6224.00
2023-03-24T11:53:16.184Z,5384.00
2023-03-24T11:54:16.103Z,4480.00
2023-03-24T11:55:16.011Z,4308.00
2023-03-24T11:56:15.934Z,5044.00
2023-03-24T11:57:15.911Z,5264.00
2023-03-24T11:58:15.774Z,4432.00
2023-03-24T11:59:15.697Z,4204.00
2023-03-24T12:00:15.659Z,3608.00
2023-03-24T12:01:15.536Z,3360.00
2023-03-24T12:02:15.468Z,3412.00
2023-03-24T12:03:15.482Z,3912.00
2023-03-24T12:04:15.705Z,4204.00
2023-03-24T12:05:15.222Z,3276.00
2023-03-24T12:06:15.172Z,2524.00
2023-03-24T12:07:15.087Z,2332.00
2023-03-24T12:08:14.991Z,2744.00
2023-03-24T12:09:14.905Z,3348.00
2023-03-24T12:10:14.827Z,4188.00
2023-03-24T12:11:16.217Z,4448.00
2023-03-24T12:12:14.680Z,4184.00
2023-03-24T12:13:25.964Z,3736.00
2023-03-24T12:14:14.514Z,3364.00
2023-03-24T12:15:27.195Z,3124.00
2023-03-24T12:16:14.522Z,3336.00
2023-03-24T12:17:14.289Z,3260.00
2023-03-24T12:18:14.203Z,2888.00
2023-03-24T12:19:14.268Z,2560.00
2023-03-24T12:20:14.042Z,2120.00
2023-03-24T12:21:13.960Z,2152.00
2023-03-24T12:22:13.889Z,2688.00
2023-03-24T12:23:13.807Z,3236.00
2023-03-24T12:24:13.726Z,4296.00
2023-03-24T12:25:13.893Z,4832.00
2023-03-24T12:26:13.567Z,4340.00
2023-03-24T12:27:13.487Z,4048.00
2023-03-24T12:28:13.407Z,3812.00
2023-03-24T12:29:13.328Z,4452.00
2023-03-24T12:30:13.247Z,5940.00
2023-03-24T12:31:13.208Z,7772.00
2023-03-24T12:32:13.131Z,13456.00
2023-03-24T12:33:13.012Z,11976.00
2023-03-24T12:34:12.932Z,9244.00
2023-03-24T12:35:12.895Z,12424.00
2023-03-24T12:36:12.796Z,11520.00
2023-03-24T12:37:12.693Z,11292.00
2023-03-24T12:38:12.617Z,7624.00
2023-03-24T12:39:12.556Z,4924.00
2023-03-24T12:40:12.506Z,3808.00
2023-03-24T12:41:12.392Z,3664.00
2023-03-24T12:42:12.305Z,4508.00
2023-03-24T12:43:12.231Z,7132.00
2023-03-24T12:44:12.150Z,11632.00
2023-03-24T12:45:12.098Z,21568.00
2023-03-24T12:46:12.007Z,59616.00
2023-03-24T12:47:11.912Z,52768.00
2023-03-24T12:50:47.513Z,60736.00
2023-03-24T12:51:47.458Z,51968.00
2023-03-24T12:54:15.001Z,21920.00
2023-03-24T12:55:18.148Z,29696.00
2023-03-24T12:56:14.857Z,37024.00
2023-03-24T12:57:15.071Z,21344.00
2023-03-24T12:58:17.333Z,17088.00
2023-03-24T12:59:14.640Z,20224.00
2023-03-24T13:00:15.506Z,39552.00
2023-03-24T13:01:14.540Z,40544.00
2023-03-24T13:02:14.460Z,40960.00
2023-03-24T13:03:14.414Z,20416.00
2023-03-24T13:04:14.264Z,22848.00
2023-03-24T13:05:15.628Z,44448.00
2023-03-24T13:06:17.638Z,49024.00
2023-03-24T13:07:14.044Z,43360.00
2023-03-24T13:08:13.976Z,49024.00
2023-03-24T13:09:13.904Z,51872.00
2023-03-24T13:10:14.052Z,40064.00
2023-03-24T13:11:26.615Z,37696.00
2023-03-24T13:12:13.698Z,42464.00
2023-03-24T13:13:13.620Z,46816.00
2023-03-24T13:14:13.553Z,49088.00
2023-03-24T13:15:13.839Z,43488.00
2023-03-24T13:16:13.449Z,44384.00
2023-03-24T13:17:13.343Z,50112.00
2023-03-24T13:18:13.322Z,28608.00
2023-03-24T13:19:13.201Z,8448.00
2023-03-24T13:20:13.233Z,9368.00
2023-03-24T13:21:13.067Z,7404.00
2023-03-24T13:22:13.023Z,9440.00
2023-03-24T13:23:12.923Z,8976.00
2023-03-24T13:24:14.486Z,18304.00
2023-03-24T13:25:13.036Z,12676.00
2023-03-24T13:26:12.714Z,11688.00
2023-03-24T13:27:12.641Z,46944.00
2023-03-24T13:28:12.577Z,39136.00
2023-03-24T13:29:12.507Z,41408.00
2023-03-24T13:30:12.427Z,10664.00
2023-03-24T13:31:12.362Z,13016.00
2023-03-24T13:32:12.344Z,12700.00
2023-03-24T13:33:12.276Z,11712.00
2023-03-24T13:34:12.144Z,15368.00
2023-03-24T13:35:12.478Z,29248.00
2023-03-24T13:36:12.010Z,37248.00
2023-03-24T13:37:11.928Z,24640.00
2023-03-24T13:38:11.876Z,25664.00
2023-03-24T13:39:11.783Z,19936.00
2023-03-24T13:40:11.716Z,19808.00
2023-03-24T13:41:11.658Z,38656.00
2023-03-24T13:42:11.569Z,50592.00
2023-03-24T13:43:11.499Z,41920.00
2023-03-24T13:44:11.426Z,17088.00
2023-03-24T13:45:11.352Z,22080.00
2023-03-24T13:46:11.352Z,14172.00
2023-03-24T13:47:11.250Z,12232.00
2023-03-24T13:48:11.219Z,14480.00
2023-03-24T13:49:11.111Z,24768.00
2023-03-24T13:50:11.004Z,35328.00
2023-03-24T13:51:10.926Z,40640.00
2023-03-24T13:52:10.894Z,34592.00
2023-03-24T13:53:10.782Z,46464.00
2023-03-24T13:54:10.733Z,56992.00
2023-03-24T13:55:10.643Z,56192.00
2023-03-24T13:56:10.575Z,55552.00
2023-03-24T13:57:10.530Z,49152.00
2023-03-24T13:58:10.463Z,29856.00
2023-03-24T13:59:10.385Z,27072.00
2023-03-24T14:00:10.293Z,55520.00
2023-03-24T14:01:10.314Z,53056.00
2023-03-24T14:02:10.176Z,64288.00
2023-03-24T14:03:11.372Z,66560.00
2023-03-24T14:04:10.072Z,68416.00
2023-03-24T14:05:09.959Z,70304.00
2023-03-24T14:06:09.888Z,74112.00
2023-03-24T14:07:09.811Z,77376.00
2023-03-24T14:08:09.749Z,75264.00
2023-03-24T14:09:09.677Z,71840.00
2023-03-24T14:10:09.941Z,69952.00
2023-03-24T14:11:09.537Z,69152.00
2023-03-24T14:12:09.484Z,70112.00
2023-03-24T14:13:09.550Z,66240.00
2023-03-24T14:15:47.041Z,56320.00
2023-03-24T14:16:46.798Z,52896.00
2023-03-24T14:17:46.879Z,49728.00
2023-03-24T14:18:52.978Z,46336.00
2023-03-24T14:19:46.597Z,44480.00
2023-03-24T14:23:14.915Z,37504.00
2023-03-24T14:24:12.127Z,36416.00
2023-03-24T14:25:12.382Z,34912.00
2023-03-24T14:26:11.989Z,33856.00
2023-03-24T14:27:11.925Z,33088.00
2023-03-24T14:28:11.855Z,32480.00
2023-03-24T14:29:11.840Z,31712.00
2023-03-24T14:30:11.760Z,31104.00
2023-03-24T14:31:11.959Z,30688.00
2023-03-24T14:32:19.822Z,28864.00
2023-03-24T14:33:11.534Z,25632.00
2023-03-24T14:34:11.452Z,23552.00
2023-03-24T14:35:11.391Z,28672.00
2023-03-24T14:36:11.325Z,30688.00
2023-03-24T14:37:11.253Z,20864.00
2023-03-24T14:38:11.186Z,29888.00
2023-03-24T14:39:11.121Z,30592.00
2023-03-24T14:40:11.085Z,29088.00
2023-03-24T14:41:11.005Z,26624.00
2023-03-24T14:42:10.918Z,22208.00
2023-03-24T14:43:10.866Z,27456.00
2023-03-24T14:44:13.436Z,26784.00
2023-03-24T14:45:14.029Z,27232.00
2023-03-24T14:46:10.706Z,26880.00
2023-03-24T14:47:11.119Z,25888.00
2023-03-24T14:48:10.557Z,17824.00
2023-03-24T14:49:10.449Z,18624.00
2023-03-24T14:50:13.020Z,13024.00
2023-03-24T14:51:10.314Z,16384.00
2023-03-24T14:52:10.598Z,25536.00
2023-03-24T14:53:10.183Z,14716.00
2023-03-24T14:54:10.314Z,13708.00
2023-03-24T14:55:10.107Z,13816.00
2023-03-24T14:56:09.979Z,24640.00
2023-03-24T14:57:09.953Z,23904.00
2023-03-24T14:58:10.084Z,26432.00
2023-03-24T14:59:09.777Z,25056.00
2023-03-24T15:00:09.726Z,7820.00
2023-03-24T15:01:09.873Z,16160.00
2023-03-24T15:02:09.618Z,21024.00
2023-03-24T15:03:09.554Z,11380.00
2023-03-24T15:04:09.567Z,6268.00
2023-03-24T15:05:09.359Z,8424.00
2023-03-24T15:06:09.288Z,9728.00
2023-03-24T15:07:12.193Z,15968.00
2023-03-24T15:08:09.305Z,15264.00
2023-03-24T15:09:09.087Z,10840.00
2023-03-24T15:10:09.032Z,9324.00
2023-03-24T15:11:08.946Z,7572.00
2023-03-24T15:14:34.627Z,6192.00
2023-03-24T15:17:34.385Z,5408.00
2023-03-24T15:18:34.495Z,5536.00
2023-03-24T15:19:34.175Z,5552.00
2023-03-24T15:20:35.730Z,5616.00
2023-03-24T15:21:34.069Z,5200.00
2023-03-24T15:22:33.957Z,5344.00
2023-03-24T15:23:33.883Z,5120.00
2023-03-24T15:24:33.837Z,5124.00
2023-03-24T15:25:33.734Z,5196.00
2023-03-24T15:26:33.737Z,4676.00
2023-03-24T15:27:33.591Z,4568.00
2023-03-24T15:28:33.517Z,4312.00
2023-03-24T15:29:33.442Z,4112.00
2023-03-24T15:30:33.469Z,4232.00
2023-03-24T15:31:33.438Z,3972.00
2023-03-24T15:32:33.252Z,3568.00
2023-03-24T15:33:33.141Z,3636.00
2023-03-24T15:34:33.072Z,4412.00
2023-03-24T15:52:00.745Z,8384.00
2023-03-24T15:53:00.545Z,8036.00
2023-03-24T15:54:00.475Z,8032.00
2023-03-24T15:55:00.394Z,6648.00
2023-03-24T15:56:00.573Z,5268.00
2023-03-24T15:57:00.354Z,4236.00
2023-03-24T15:58:00.225Z,4444.00
2023-03-24T15:59:00.108Z,3968.00
2023-03-24T16:00:00.030Z,4468.00
2023-03-24T16:01:00.017Z,5684.00
2023-03-24T16:01:59.888Z,4212.00
2023-03-24T16:03:00.128Z,2440.00
2023-03-24T16:05:09.830Z,2508.00
2023-03-24T16:06:00.241Z,2444.00
2023-03-24T16:06:59.695Z,2336.00
2023-03-24T16:07:59.718Z,2236.00
2023-03-24T16:08:59.604Z,2204.00
2023-03-24T16:10:59.242Z,3688.00
2023-03-24T16:12:00.123Z,3832.00
2023-03-24T16:12:59.096Z,4260.00
2023-03-24T16:13:58.992Z,3620.00
2023-03-24T16:14:58.956Z,3372.00
2023-03-24T16:15:58.835Z,3372.00
2023-03-24T16:16:58.824Z,4304.00
2023-03-24T16:17:58.731Z,3340.00
2023-03-24T16:18:58.609Z,3208.00
2023-03-24T16:19:58.536Z,2688.00
2023-03-24T16:20:58.455Z,2728.00
2023-03-24T16:21:58.530Z,2460.00
2023-03-24T16:22:58.305Z,2264.00
2023-03-24T16:23:58.298Z,2236.00
2023-03-24T16:24:58.217Z,2264.00
2023-03-24T16:28:10.707Z,1876.00
2023-03-24T16:29:10.430Z,1884.00
2023-03-24T16:30:10.357Z,1800.00
2023-03-24T16:31:10.400Z,1692.00
2023-03-24T16:32:10.204Z,1616.00
2023-03-24T16:33:10.158Z,1540.00
2023-03-24T16:34:10.048Z,1524.00
2023-03-24T16:35:10.032Z,1492.00
2023-03-24T16:36:09.902Z,1628.00
2023-03-24T16:37:09.813Z,1872.00
2023-03-24T16:38:09.740Z,2324.00
2023-03-24T16:39:09.687Z,2404.00
2023-03-24T16:40:09.587Z,2488.00
2023-03-24T16:41:09.509Z,2180.00
2023-03-24T16:42:09.432Z,2404.00
2023-03-24T16:43:09.354Z,2376.00
2023-03-24T16:44:09.278Z,2392.00
2023-03-24T16:45:09.238Z,1884.00
2023-03-24T16:46:09.203Z,1616.00
2023-03-24T16:47:09.085Z,1580.00
2023-03-24T16:48:09.059Z,1504.00
2023-03-24T16:49:08.897Z,1536.00
2023-03-24T16:50:08.816Z,1536.00
2023-03-24T16:51:51.225Z,1312.00
2023-03-24T16:52:51.146Z,1292.00
2023-03-24T16:53:51.074Z,1332.00
2023-03-24T16:54:51.031Z,1316.00
2023-03-24T16:55:50.915Z,1176.00
2023-03-24T16:56:50.885Z,1140.00
2023-03-24T16:57:50.760Z,1148.00
2023-03-24T16:58:50.683Z,1148.00
2023-03-24T16:59:50.606Z,1100.00
2023-03-24T17:00:50.843Z,1024.00
2023-03-24T17:01:50.465Z,1016.00
2023-03-24T17:02:50.401Z,1028.00
2023-03-24T17:03:50.403Z,984.00
2023-03-24T17:04:50.255Z,916.00
2023-03-24T17:05:50.584Z,892.00
2023-03-24T17:06:51.216Z,868.00
2023-03-24T17:07:50.194Z,868.00
2023-03-24T17:08:50.248Z,852.00
2023-03-24T17:09:49.868Z,860.00
2023-03-24T17:10:51.776Z,868.00
2023-03-24T17:11:49.724Z,880.00
2023-03-24T17:12:49.607Z,832.00
2023-03-24T17:13:49.520Z,788.00
2023-03-24T17:14:49.444Z,740.00
2023-03-24T17:15:49.441Z,708.00
2023-03-24T17:16:49.348Z,704.00
2023-03-24T17:17:49.250Z,732.00
2023-03-24T17:18:49.128Z,716.00
2023-03-24T17:19:49.075Z,660.00
2023-03-24T17:20:49.088Z,572.00
2023-03-24T17:21:48.931Z,528.00
2023-03-24T17:22:48.817Z,504.00
2023-03-24T17:23:48.747Z,488.00
2023-03-24T17:24:48.675Z,468.00
2023-03-24T17:25:48.584Z,444.00
2023-03-24T17:26:48.730Z,424.00
2023-03-24T17:27:48.431Z,404.00
2023-03-24T17:28:48.358Z,380.00
2023-03-24T17:29:48.408Z,352.00
2023-03-24T17:30:48.450Z,324.00
2023-03-24T17:31:48.168Z,304.00
2023-03-24T17:32:48.072Z,272.00
2023-03-24T17:33:48.201Z,252.00
2023-03-24T17:34:47.923Z,236.00
2023-03-24T17:35:47.869Z,196.00
2023-03-24T17:36:47.769Z,176.00
2023-03-24T17:37:47.646Z,152.00
2023-03-24T17:38:47.579Z,140.00
2023-03-24T17:39:47.502Z,144.00
2023-03-24T17:40:47.521Z,148.00
2023-03-24T17:41:47.377Z,140.00
2023-03-24T17:42:47.299Z,112.00
2023-03-24T17:43:47.417Z,92.00
2023-03-24T17:44:47.132Z,76.00
2023-03-24T17:45:47.255Z,68.00
2023-03-24T17:46:46.984Z,60.00
2023-03-24T17:47:47.286Z,48.00
2023-03-24T17:48:49.261Z,40.00
2023-03-24T17:49:46.746Z,28.00
2023-03-24T17:50:46.992Z,24.00
2023-03-24T17:51:46.589Z,20.00
2023-03-24T17:52:46.734Z,20.00
2023-03-24T17:53:46.394Z,20.00
2023-03-24T17:55:46.269Z,16.00
2023-03-24T17:56:46.463Z,12.00
2023-03-24T17:57:46.524Z,12.00
2023-03-24T17:58:46.067Z,8.00
2023-03-24T17:59:46.303Z,8.00
2023-03-24T18:00:46.117Z,4.00
2023-03-24T18:01:46.104Z,4.00
2023-03-24T18:02:46.022Z,4.00
2023-03-24T18:03:45.682Z,4.00
2023-03-24T18:04:45.530Z,4.00
2023-03-24T18:05:45.450Z,0.00
2023-03-24T18:06:45.372Z,0.00
2023-03-24T18:07:45.286Z,0.00
2023-03-24T18:08:45.213Z,0.00
2023-03-24T18:09:45.135Z,4.00
2023-03-24T18:10:45.053Z,0.00
2023-03-24T18:11:46.707Z,0.00
2023-03-24T18:12:44.898Z,0.00
2023-03-24T18:13:44.816Z,0.00
2023-03-24T18:14:44.778Z,0.00
2023-03-24T18:15:44.658Z,0.00
2023-03-24T18:16:44.611Z,0.00
2023-03-24T18:17:44.503Z,0.00
2023-03-24T18:18:45.474Z,0.00
2023-03-24T18:19:44.383Z,0.00
2023-03-24T18:20:44.263Z,0.00
2023-03-24T18:21:44.191Z,0.00
2023-03-24T18:22:44.119Z,0.00
2023-03-24T18:23:44.110Z,0.00
2023-03-24T18:24:43.982Z,0.00
2023-03-24T18:27:43.710Z,0.00
2023-03-24T18:28:43.635Z,0.00
2023-03-24T18:29:43.554Z,0.00
2023-03-24T18:30:43.637Z,0.00
2023-03-24T18:31:43.641Z,0.00
2023-03-24T18:32:43.648Z,0.00
2023-03-24T18:33:43.238Z,0.00
2023-03-24T18:34:44.562Z,0.00
2023-03-24T18:35:43.085Z,0.00
2023-03-24T18:36:43.038Z,0.00
2023-03-24T18:37:43.666Z,0.00
2023-03-24T18:38:42.878Z,0.00
2023-03-24T18:39:43.003Z,0.00
2023-03-24T18:40:42.721Z,0.00
2023-03-24T18:41:42.613Z,0.00
2023-03-24T18:42:42.561Z,0.00
2023-03-24T18:43:42.682Z,0.00
2023-03-24T18:44:42.604Z,0.00
2023-03-24T18:46:42.979Z,0.00
2023-03-24T18:47:43.003Z,0.00
2023-03-24T18:51:41.817Z,0.00
2023-03-24T18:52:41.735Z,0.00
2023-03-24T18:53:41.761Z,0.00
2023-03-24T18:54:41.609Z,0.00
2023-03-24T18:55:41.531Z,0.00
2023-03-24T19:05:23.289Z,0.00
2023-03-24T19:06:23.185Z,0.00
2023-03-24T19:07:23.115Z,0.00
2023-03-24T19:33:09.734Z,0.00
2023-03-24T19:34:09.561Z,0.00
2023-03-24T19:35:09.488Z,0.00
2023-03-24T19:36:09.561Z,0.00
2023-03-24T19:37:09.321Z,0.00
2023-03-24T19:38:09.242Z,0.00